Achille, Oklahoma
Current Conditions -  °F | °C
As of 10:35 AM on Friday 19 Dec 2014 (Local Time) from KDUA Reporting Station
Haze Haze  
Wind Chill: 38°   Ceiling: 500
Heat Index: 43°   Visibility: 5mi
Dew Point: 43°   Wind: 8mph
Humidity: 100%   Direction: 290°WNW
Pressure: 30.23"   Gusts: NA
Location:  33.83°N, 96.39°W
Report Text: KDUA 191635Z AUTO 29007KT 240V010 5SM BR OVC005 06/06 A3023 RMK AO2
Loading
Personal Weather Stations






























Interactive Weather Map New forecast layout! Learn more

10-Day Weather Forecast

Advertisements
Track Severe Weather on mobile